sensor_id;sensor_type;location;lat;lon;timestamp;temperature;humidity
6429;DHT22;3247;48.946;10.220;2022-07-30T00:02:22;15.50;99.90
6429;DHT22;3247;48.946;10.220;2022-07-30T00:04:47;15.20;99.90
6429;DHT22;3247;48.946;10.220;2022-07-30T00:07:13;15.20;99.90
6429;DHT22;3247;48.946;10.220;2022-07-30T00:09:39;15.00;99.90
6429;DHT22;3247;48.946;10.220;2022-07-30T00:12:05;14.90;99.90
6429;DHT22;3247;48.946;10.220;2022-07-30T00:14:30;14.90;99.90
6429;DHT22;3247;48.946;10.220;2022-07-30T00:16:56;14.80;99.90
6429;DHT22;3247;48.946;10.220;2022-07-30T00:19:22;14.90;99.90
6429;DHT22;3247;48.946;10.220;2022-07-30T00:24:50;14.90;99.90
6429;DHT22;3247;48.946;10.220;2022-07-30T00:27:16;14.90;99.90
6429;DHT22;3247;48.946;10.220;2022-07-30T00:29:41;14.90;99.90
6429;DHT22;3247;48.946;10.220;2022-07-30T00:32:07;14.80;99.90
6429;DHT22;3247;48.946;10.220;2022-07-30T00:34:32;14.80;99.90
6429;DHT22;3247;48.946;10.220;2022-07-30T00:36:58;14.70;99.90
6429;DHT22;3247;48.946;10.220;2022-07-30T00:39:23;14.90;99.90
6429;DHT22;3247;48.946;10.220;2022-07-30T00:41:55;14.60;99.90
6429;DHT22;3247;48.946;10.220;2022-07-30T00:44:22;14.50;99.90
6429;DHT22;3247;48.946;10.220;2022-07-30T00:46:48;14.50;99.90
6429;DHT22;3247;48.946;10.220;2022-07-30T00:49:13;14.50;99.90
6429;DHT22;3247;48.946;10.220;2022-07-30T00:51:39;14.30;99.90
6429;DHT22;3247;48.946;10.220;2022-07-30T00:54:04;14.30;99.90
6429;DHT22;3247;48.946;10.220;2022-07-30T00:56:30;14.30;99.90
6429;DHT22;3247;48.946;10.220;2022-07-30T00:58:56;14.30;99.90
6429;DHT22;3247;48.946;10.220;2022-07-30T01:01:21;14.20;99.90
6429;DHT22;3247;48.946;10.220;2022-07-30T01:03:46;14.10;99.90
6429;DHT22;3247;48.946;10.220;2022-07-30T01:06:12;14.10;99.90
6429;DHT22;3247;48.946;10.220;2022-07-30T01:08:37;14.00;99.90
6429;DHT22;3247;48.946;10.220;2022-07-30T01:11:03;14.00;99.90
6429;DHT22;3247;48.946;10.220;2022-07-30T01:13:28;13.90;99.90
6429;DHT22;3247;48.946;10.220;2022-07-30T01:15:54;13.80;99.90
6429;DHT22;3247;48.946;10.220;2022-07-30T01:18:19;13.80;99.90
6429;DHT22;3247;48.946;10.220;2022-07-30T01:23:49;13.80;99.90
6429;DHT22;3247;48.946;10.220;2022-07-30T01:26:17;13.80;99.90
6429;DHT22;3247;48.946;10.220;2022-07-30T01:28:45;13.80;99.90
6429;DHT22;3247;48.946;10.220;2022-07-30T01:31:12;13.70;99.90
6429;DHT22;3247;48.946;10.220;2022-07-30T01:33:39;13.90;99.90
6429;DHT22;3247;48.946;10.220;2022-07-30T01:36:05;13.70;99.90
6429;DHT22;3247;48.946;10.220;2022-07-30T01:38:32;13.80;99.90
6429;DHT22;3247;48.946;10.220;2022-07-30T01:40:58;13.80;99.90
6429;DHT22;3247;48.946;10.220;2022-07-30T01:43:24;13.80;99.90
6429;DHT22;3247;48.946;10.220;2022-07-30T01:45:50;13.80;99.90
6429;DHT22;3247;48.946;10.220;2022-07-30T01:48:17;13.70;99.90
6429;DHT22;3247;48.946;10.220;2022-07-30T01:50:59;13.60;99.90
6429;DHT22;3247;48.946;10.220;2022-07-30T01:53:27;13.50;99.90
6429;DHT22;3247;48.946;10.220;2022-07-30T01:55:54;13.40;99.90
6429;DHT22;3247;48.946;10.220;2022-07-30T01:58:20;13.50;99.90
6429;DHT22;3247;48.946;10.220;2022-07-30T02:00:47;13.30;99.90
6429;DHT22;3247;48.946;10.220;2022-07-30T02:03:13;13.20;99.90
6429;DHT22;3247;48.946;10.220;2022-07-30T02:05:39;13.20;99.90
6429;DHT22;3247;48.946;10.220;2022-07-30T02:08:12;13.10;99.90
6429;DHT22;3247;48.946;10.220;2022-07-30T02:10:41;13.10;99.90
6429;DHT22;3247;48.946;10.220;2022-07-30T02:13:08;13.10;99.90
6429;DHT22;3247;48.946;10.220;2022-07-30T02:15:37;13.10;99.90
6429;DHT22;3247;48.946;10.220;2022-07-30T02:18:30;13.10;99.90
6429;DHT22;3247;48.946;10.220;2022-07-30T02:21:04;13.10;99.90
6429;DHT22;3247;48.946;10.220;2022-07-30T02:23:33;13.10;99.90
6429;DHT22;3247;48.946;10.220;2022-07-30T02:25:59;13.10;99.90
6429;DHT22;3247;48.946;10.220;2022-07-30T02:28:26;13.20;99.90
6429;DHT22;3247;48.946;10.220;2022-07-30T02:30:56;13.20;99.90
6429;DHT22;3247;48.946;10.220;2022-07-30T02:33:24;13.10;99.90
6429;DHT22;3247;48.946;10.220;2022-07-30T02:35:50;13.10;99.90
6429;DHT22;3247;48.946;10.220;2022-07-30T02:38:16;13.10;99.90
6429;DHT22;3247;48.946;10.220;2022-07-30T02:40:42;13.10;99.90
6429;DHT22;3247;48.946;10.220;2022-07-30T02:43:09;13.00;99.90
6429;DHT22;3247;48.946;10.220;2022-07-30T02:45:35;13.00;99.90
6429;DHT22;3247;48.946;10.220;2022-07-30T02:48:02;13.00;99.90
6429;DHT22;3247;48.946;10.220;2022-07-30T02:50:46;13.00;99.90
6429;DHT22;3247;48.946;10.220;2022-07-30T02:53:13;12.90;99.90
6429;DHT22;3247;48.946;10.220;2022-07-30T02:55:38;13.00;99.90
6429;DHT22;3247;48.946;10.220;2022-07-30T02:58:05;12.90;99.90
6429;DHT22;3247;48.946;10.220;2022-07-30T03:00:31;12.90;99.90
6429;DHT22;3247;48.946;10.220;2022-07-30T03:02:57;13.00;99.90
6429;DHT22;3247;48.946;10.220;2022-07-30T03:05:23;13.00;99.90
6429;DHT22;3247;48.946;10.220;2022-07-30T03:07:50;13.00;99.90
6429;DHT22;3247;48.946;10.220;2022-07-30T03:10:16;13.10;99.90
6429;DHT22;3247;48.946;10.220;2022-07-30T03:12:43;13.00;99.90
6429;DHT22;3247;48.946;10.220;2022-07-30T03:15:09;13.10;99.90
6429;DHT22;3247;48.946;10.220;2022-07-30T03:17:37;13.00;99.90
6429;DHT22;3247;48.946;10.220;2022-07-30T03:20:04;13.00;99.90
6429;DHT22;3247;48.946;10.220;2022-07-30T03:22:31;13.00;99.90
6429;DHT22;3247;48.946;10.220;2022-07-30T03:24:59;13.10;99.90
6429;DHT22;3247;48.946;10.220;2022-07-30T03:27:25;13.10;99.90
6429;DHT22;3247;48.946;10.220;2022-07-30T03:29:51;13.20;99.90
6429;DHT22;3247;48.946;10.220;2022-07-30T03:32:18;13.20;99.90
6429;DHT22;3247;48.946;10.220;2022-07-30T03:34:44;13.20;99.90
6429;DHT22;3247;48.946;10.220;2022-07-30T03:37:10;13.20;99.90
6429;DHT22;3247;48.946;10.220;2022-07-30T03:39:36;13.30;99.90
6429;DHT22;3247;48.946;10.220;2022-07-30T03:42:02;13.30;99.90
6429;DHT22;3247;48.946;10.220;2022-07-30T03:44:28;13.30;99.90
6429;DHT22;3247;48.946;10.220;2022-07-30T03:46:54;13.40;99.90
6429;DHT22;3247;48.946;10.220;2022-07-30T03:49:20;13.40;99.90
6429;DHT22;3247;48.946;10.220;2022-07-30T03:51:49;13.50;99.90
6429;DHT22;3247;48.946;10.220;2022-07-30T03:54:15;13.50;99.90
6429;DHT22;3247;48.946;10.220;2022-07-30T03:56:41;13.50;99.90
6429;DHT22;3247;48.946;10.220;2022-07-30T03:59:07;13.50;99.90
6429;DHT22;3247;48.946;10.220;2022-07-30T04:01:32;13.60;99.90
6429;DHT22;3247;48.946;10.220;2022-07-30T04:04:03;13.70;99.90
6429;DHT22;3247;48.946;10.220;2022-07-30T04:06:28;13.70;99.90
6429;DHT22;3247;48.946;10.220;2022-07-30T04:08:54;13.80;99.90
6429;DHT22;3247;48.946;10.220;2022-07-30T04:11:19;13.80;99.90
6429;DHT22;3247;48.946;10.220;2022-07-30T04:13:45;13.90;99.90
6429;DHT22;3247;48.946;10.220;2022-07-30T04:16:15;14.00;99.90
6429;DHT22;3247;48.946;10.220;2022-07-30T04:18:43;14.10;99.90
6429;DHT22;3247;48.946;10.220;2022-07-30T04:21:15;14.10;99.90
6429;DHT22;3247;48.946;10.220;2022-07-30T04:23:42;14.20;99.90
6429;DHT22;3247;48.946;10.220;2022-07-30T04:26:08;14.20;99.90
6429;DHT22;3247;48.946;10.220;2022-07-30T04:28:34;14.30;99.90
6429;DHT22;3247;48.946;10.220;2022-07-30T04:31:01;14.30;99.90
6429;DHT22;3247;48.946;10.220;2022-07-30T04:33:26;14.40;99.90
6429;DHT22;3247;48.946;10.220;2022-07-30T04:35:52;14.40;99.90
6429;DHT22;3247;48.946;10.220;2022-07-30T04:38:18;14.40;99.90
6429;DHT22;3247;48.946;10.220;2022-07-30T04:40:44;14.60;99.90
6429;DHT22;3247;48.946;10.220;2022-07-30T04:43:10;14.70;99.90
6429;DHT22;3247;48.946;10.220;2022-07-30T04:45:37;14.80;99.90
6429;DHT22;3247;48.946;10.220;2022-07-30T04:48:03;15.00;99.90
6429;DHT22;3247;48.946;10.220;2022-07-30T04:50:34;15.10;99.90
6429;DHT22;3247;48.946;10.220;2022-07-30T04:53:01;15.60;99.90
6429;DHT22;3247;48.946;10.220;2022-07-30T04:55:27;16.30;99.90
6429;DHT22;3247;48.946;10.220;2022-07-30T04:57:53;17.40;99.90
6429;DHT22;3247;48.946;10.220;2022-07-30T05:00:19;18.10;99.90
6429;DHT22;3247;48.946;10.220;2022-07-30T05:02:45;18.80;99.90
6429;DHT22;3247;48.946;10.220;2022-07-30T05:05:10;19.50;99.90
6429;DHT22;3247;48.946;10.220;2022-07-30T05:07:37;20.10;99.90
6429;DHT22;3247;48.946;10.220;2022-07-30T05:10:04;20.50;99.90
6429;DHT22;3247;48.946;10.220;2022-07-30T05:12:33;21.00;99.90
6429;DHT22;3247;48.946;10.220;2022-07-30T05:15:05;21.30;99.90
6429;DHT22;3247;48.946;10.220;2022-07-30T05:17:31;21.90;99.90
6429;DHT22;3247;48.946;10.220;2022-07-30T05:20:02;22.30;99.90
6429;DHT22;3247;48.946;10.220;2022-07-30T05:22:28;22.70;99.90
6429;DHT22;3247;48.946;10.220;2022-07-30T05:24:58;22.90;99.90
6429;DHT22;3247;48.946;10.220;2022-07-30T05:27:23;23.30;99.90
6429;DHT22;3247;48.946;10.220;2022-07-30T05:29:49;23.40;99.90
6429;DHT22;3247;48.946;10.220;2022-07-30T05:32:15;23.70;99.90
6429;DHT22;3247;48.946;10.220;2022-07-30T05:34:40;24.60;99.90
6429;DHT22;3247;48.946;10.220;2022-07-30T05:37:06;25.10;99.90
6429;DHT22;3247;48.946;10.220;2022-07-30T05:39:32;25.40;99.90
6429;DHT22;3247;48.946;10.220;2022-07-30T05:41:57;25.40;99.90
6429;DHT22;3247;48.946;10.220;2022-07-30T05:44:22;25.60;99.90
6429;DHT22;3247;48.946;10.220;2022-07-30T05:46:48;26.00;99.90
6429;DHT22;3247;48.946;10.220;2022-07-30T05:49:14;26.10;99.90
6429;DHT22;3247;48.946;10.220;2022-07-30T05:54:27;27.30;99.90
6429;DHT22;3247;48.946;10.220;2022-07-30T05:56:52;27.30;99.90
6429;DHT22;3247;48.946;10.220;2022-07-30T05:59:18;27.40;99.90
6429;DHT22;3247;48.946;10.220;2022-07-30T06:01:44;27.20;99.90
6429;DHT22;3247;48.946;10.220;2022-07-30T06:04:10;27.50;99.90
6429;DHT22;3247;48.946;10.220;2022-07-30T06:06:35;27.70;99.90
6429;DHT22;3247;48.946;10.220;2022-07-30T06:09:01;27.90;99.90
6429;DHT22;3247;48.946;10.220;2022-07-30T06:11:26;28.60;99.90
6429;DHT22;3247;48.946;10.220;2022-07-30T06:13:52;28.60;99.90
6429;DHT22;3247;48.946;10.220;2022-07-30T06:16:17;29.00;99.90
6429;DHT22;3247;48.946;10.220;2022-07-30T06:18:43;29.20;99.90
6429;DHT22;3247;48.946;10.220;2022-07-30T06:24:12;30.00;99.90
6429;DHT22;3247;48.946;10.220;2022-07-30T06:26:37;29.90;99.90
6429;DHT22;3247;48.946;10.220;2022-07-30T06:29:03;30.30;99.80
6429;DHT22;3247;48.946;10.220;2022-07-30T06:31:28;30.10;98.90
6429;DHT22;3247;48.946;10.220;2022-07-30T06:33:54;30.40;99.10
6429;DHT22;3247;48.946;10.220;2022-07-30T06:36:19;30.70;97.50
6429;DHT22;3247;48.946;10.220;2022-07-30T06:38:45;29.50;99.20
6429;DHT22;3247;48.946;10.220;2022-07-30T06:41:11;30.00;98.60
6429;DHT22;3247;48.946;10.220;2022-07-30T06:43:36;29.60;98.20
6429;DHT22;3247;48.946;10.220;2022-07-30T06:46:02;29.50;98.30
6429;DHT22;3247;48.946;10.220;2022-07-30T06:48:29;29.70;97.80
6429;DHT22;3247;48.946;10.220;2022-07-30T06:50:54;30.50;97.00
6429;DHT22;3247;48.946;10.220;2022-07-30T06:53:20;31.00;96.10
6429;DHT22;3247;48.946;10.220;2022-07-30T06:55:45;30.80;96.30
6429;DHT22;3247;48.946;10.220;2022-07-30T06:58:11;31.30;94.60
6429;DHT22;3247;48.946;10.220;2022-07-30T07:00:36;32.10;93.50
6429;DHT22;3247;48.946;10.220;2022-07-30T07:03:02;32.10;93.60
6429;DHT22;3247;48.946;10.220;2022-07-30T07:05:27;31.90;92.90
6429;DHT22;3247;48.946;10.220;2022-07-30T07:07:53;32.00;92.70
6429;DHT22;3247;48.946;10.220;2022-07-30T07:10:18;32.70;91.70
6429;DHT22;3247;48.946;10.220;2022-07-30T07:12:45;32.80;91.20
6429;DHT22;3247;48.946;10.220;2022-07-30T07:15:10;33.20;90.10
6429;DHT22;3247;48.946;10.220;2022-07-30T07:17:36;32.20;90.90
6429;DHT22;3247;48.946;10.220;2022-07-30T07:20:01;32.10;90.70
6429;DHT22;3247;48.946;10.220;2022-07-30T07:22:27;31.90;91.30
6429;DHT22;3247;48.946;10.220;2022-07-30T07:24:52;32.60;89.30
6429;DHT22;3247;48.946;10.220;2022-07-30T07:27:18;32.80;89.20
6429;DHT22;3247;48.946;10.220;2022-07-30T07:29:43;33.60;86.80
6429;DHT22;3247;48.946;10.220;2022-07-30T07:32:09;33.40;85.70
6429;DHT22;3247;48.946;10.220;2022-07-30T07:34:34;33.00;86.10
6429;DHT22;3247;48.946;10.220;2022-07-30T07:37:00;33.70;84.60
6429;DHT22;3247;48.946;10.220;2022-07-30T07:39:25;33.50;85.80
6429;DHT22;3247;48.946;10.220;2022-07-30T07:41:51;33.50;85.90
6429;DHT22;3247;48.946;10.220;2022-07-30T07:44:16;32.90;85.40
6429;DHT22;3247;48.946;10.220;2022-07-30T07:46:42;32.50;86.10
6429;DHT22;3247;48.946;10.220;2022-07-30T07:49:07;32.40;86.20
6429;DHT22;3247;48.946;10.220;2022-07-30T07:51:33;32.00;86.20
6429;DHT22;3247;48.946;10.220;2022-07-30T07:54:00;31.90;87.10
6429;DHT22;3247;48.946;10.220;2022-07-30T07:56:26;32.30;85.90
6429;DHT22;3247;48.946;10.220;2022-07-30T07:58:51;32.40;87.20
6429;DHT22;3247;48.946;10.220;2022-07-30T08:01:18;33.90;83.10
6429;DHT22;3247;48.946;10.220;2022-07-30T08:03:44;32.80;81.60
6429;DHT22;3247;48.946;10.220;2022-07-30T08:06:09;32.00;84.30
6429;DHT22;3247;48.946;10.220;2022-07-30T08:08:35;31.50;86.90
6429;DHT22;3247;48.946;10.220;2022-07-30T08:11:01;31.70;84.90
6429;DHT22;3247;48.946;10.220;2022-07-30T08:13:27;31.50;86.70
6429;DHT22;3247;48.946;10.220;2022-07-30T08:15:52;33.00;82.80
6429;DHT22;3247;48.946;10.220;2022-07-30T08:18:18;32.70;82.00
6429;DHT22;3247;48.946;10.220;2022-07-30T08:20:43;32.20;82.80
6429;DHT22;3247;48.946;10.220;2022-07-30T08:23:09;30.90;84.30
6429;DHT22;3247;48.946;10.220;2022-07-30T08:25:34;30.70;86.40
6429;DHT22;3247;48.946;10.220;2022-07-30T08:28:00;30.70;84.90
6429;DHT22;3247;48.946;10.220;2022-07-30T08:30:27;30.90;84.40
6429;DHT22;3247;48.946;10.220;2022-07-30T08:32:53;31.60;83.60
6429;DHT22;3247;48.946;10.220;2022-07-30T08:35:18;31.90;83.20
6429;DHT22;3247;48.946;10.220;2022-07-30T08:37:44;31.90;83.70
6429;DHT22;3247;48.946;10.220;2022-07-30T08:40:09;31.20;82.80
6429;DHT22;3247;48.946;10.220;2022-07-30T08:42:35;31.40;82.60
6429;DHT22;3247;48.946;10.220;2022-07-30T08:45:02;31.60;81.60
6429;DHT22;3247;48.946;10.220;2022-07-30T08:47:30;31.10;82.50
6429;DHT22;3247;48.946;10.220;2022-07-30T08:49:55;31.70;82.20
6429;DHT22;3247;48.946;10.220;2022-07-30T08:52:26;31.90;78.70
6429;DHT22;3247;48.946;10.220;2022-07-30T08:54:52;30.90;78.20
6429;DHT22;3247;48.946;10.220;2022-07-30T08:57:17;30.00;82.10
6429;DHT22;3247;48.946;10.220;2022-07-30T08:59:43;29.80;83.10
6429;DHT22;3247;48.946;10.220;2022-07-30T09:02:09;29.20;81.40
6429;DHT22;3247;48.946;10.220;2022-07-30T09:04:34;29.00;80.50
6429;DHT22;3247;48.946;10.220;2022-07-30T09:07:00;28.80;82.40
6429;DHT22;3247;48.946;10.220;2022-07-30T09:09:25;29.10;83.60
6429;DHT22;3247;48.946;10.220;2022-07-30T09:11:51;28.70;84.80
6429;DHT22;3247;48.946;10.220;2022-07-30T09:14:16;28.90;80.80
6429;DHT22;3247;48.946;10.220;2022-07-30T09:16:42;29.10;81.70
6429;DHT22;3247;48.946;10.220;2022-07-30T09:19:12;29.00;80.40
6429;DHT22;3247;48.946;10.220;2022-07-30T09:21:37;29.10;81.20
6429;DHT22;3247;48.946;10.220;2022-07-30T09:24:05;28.80;80.00
6429;DHT22;3247;48.946;10.220;2022-07-30T09:26:31;28.90;80.70
6429;DHT22;3247;48.946;10.220;2022-07-30T09:29:15;29.30;78.30
6429;DHT22;3247;48.946;10.220;2022-07-30T09:31:54;30.10;75.60
6429;DHT22;3247;48.946;10.220;2022-07-30T09:34:23;30.30;72.60
6429;DHT22;3247;48.946;10.220;2022-07-30T09:36:49;29.70;71.50
6429;DHT22;3247;48.946;10.220;2022-07-30T09:39:16;29.70;73.80
6429;DHT22;3247;48.946;10.220;2022-07-30T09:41:51;30.30;72.00
6429;DHT22;3247;48.946;10.220;2022-07-30T09:44:24;29.90;70.30
6429;DHT22;3247;48.946;10.220;2022-07-30T09:46:50;30.20;71.40
6429;DHT22;3247;48.946;10.220;2022-07-30T09:49:17;30.40;70.80
6429;DHT22;3247;48.946;10.220;2022-07-30T09:51:43;30.00;72.00
6429;DHT22;3247;48.946;10.220;2022-07-30T09:54:08;30.30;70.90
6429;DHT22;3247;48.946;10.220;2022-07-30T09:56:34;29.80;71.50
6429;DHT22;3247;48.946;10.220;2022-07-30T09:59:00;28.80;72.20
6429;DHT22;3247;48.946;10.220;2022-07-30T10:01:26;27.60;73.70
6429;DHT22;3247;48.946;10.220;2022-07-30T10:03:52;27.50;75.40
6429;DHT22;3247;48.946;10.220;2022-07-30T10:06:18;28.10;75.10
6429;DHT22;3247;48.946;10.220;2022-07-30T10:08:47;28.30;72.90
6429;DHT22;3247;48.946;10.220;2022-07-30T10:11:19;28.20;72.70
6429;DHT22;3247;48.946;10.220;2022-07-30T10:13:52;27.90;73.90
6429;DHT22;3247;48.946;10.220;2022-07-30T10:16:18;27.80;73.90
6429;DHT22;3247;48.946;10.220;2022-07-30T10:18:44;27.10;74.70
6429;DHT22;3247;48.946;10.220;2022-07-30T10:21:11;26.70;76.10
6429;DHT22;3247;48.946;10.220;2022-07-30T10:23:36;27.00;74.40
6429;DHT22;3247;48.946;10.220;2022-07-30T10:26:02;27.40;74.80
6429;DHT22;3247;48.946;10.220;2022-07-30T10:28:29;27.90;74.80
6429;DHT22;3247;48.946;10.220;2022-07-30T10:30:55;28.00;70.90
6429;DHT22;3247;48.946;10.220;2022-07-30T10:33:22;27.30;71.50
6429;DHT22;3247;48.946;10.220;2022-07-30T10:35:48;27.10;74.20
6429;DHT22;3247;48.946;10.220;2022-07-30T10:38:14;27.40;73.70
6429;DHT22;3247;48.946;10.220;2022-07-30T10:48:16;27.90;72.10
6429;DHT22;3247;48.946;10.220;2022-07-30T10:50:49;28.20;72.50
6429;DHT22;3247;48.946;10.220;2022-07-30T10:53:34;28.10;71.00
6429;DHT22;3247;48.946;10.220;2022-07-30T10:56:10;28.50;73.30
6429;DHT22;3247;48.946;10.220;2022-07-30T10:58:56;29.00;68.40
6429;DHT22;3247;48.946;10.220;2022-07-30T11:01:21;29.40;68.40
6429;DHT22;3247;48.946;10.220;2022-07-30T11:04:15;29.70;69.40
6429;DHT22;3247;48.946;10.220;2022-07-30T11:06:32;29.70;68.80
6429;DHT22;3247;48.946;10.220;2022-07-30T11:08:57;29.00;69.30
6429;DHT22;3247;48.946;10.220;2022-07-30T11:16:19;29.80;68.60
6429;DHT22;3247;48.946;10.220;2022-07-30T11:21:30;29.20;68.80
6429;DHT22;3247;48.946;10.220;2022-07-30T11:23:56;29.20;67.70
6429;DHT22;3247;48.946;10.220;2022-07-30T11:29:03;29.40;66.80
6429;DHT22;3247;48.946;10.220;2022-07-30T11:39:31;29.30;68.10
6429;DHT22;3247;48.946;10.220;2022-07-30T11:42:22;29.60;67.80
6429;DHT22;3247;48.946;10.220;2022-07-30T11:44:48;29.80;67.70
6429;DHT22;3247;48.946;10.220;2022-07-30T11:47:14;29.40;66.90
6429;DHT22;3247;48.946;10.220;2022-07-30T11:49:44;29.00;67.70
6429;DHT22;3247;48.946;10.220;2022-07-30T11:52:10;28.70;68.60
6429;DHT22;3247;48.946;10.220;2022-07-30T11:54:52;28.50;70.00
6429;DHT22;3247;48.946;10.220;2022-07-30T11:57:17;28.20;69.60
6429;DHT22;3247;48.946;10.220;2022-07-30T11:59:55;28.20;69.40
6429;DHT22;3247;48.946;10.220;2022-07-30T12:02:27;28.20;70.30
6429;DHT22;3247;48.946;10.220;2022-07-30T12:04:52;28.00;70.50
6429;DHT22;3247;48.946;10.220;2022-07-30T12:07:21;28.20;70.90
6429;DHT22;3247;48.946;10.220;2022-07-30T12:09:47;28.20;71.60
6429;DHT22;3247;48.946;10.220;2022-07-30T12:12:19;28.20;70.50
6429;DHT22;3247;48.946;10.220;2022-07-30T12:14:46;28.20;70.10
6429;DHT22;3247;48.946;10.220;2022-07-30T12:17:11;27.80;71.00
6429;DHT22;3247;48.946;10.220;2022-07-30T12:19:46;28.20;71.60
6429;DHT22;3247;48.946;10.220;2022-07-30T12:22:11;28.40;70.50
6429;DHT22;3247;48.946;10.220;2022-07-30T12:24:37;28.30;68.80
6429;DHT22;3247;48.946;10.220;2022-07-30T12:27:03;28.00;69.50
6429;DHT22;3247;48.946;10.220;2022-07-30T12:29:29;27.90;70.20
6429;DHT22;3247;48.946;10.220;2022-07-30T12:31:56;28.20;69.90
6429;DHT22;3247;48.946;10.220;2022-07-30T12:34:22;28.30;70.30
6429;DHT22;3247;48.946;10.220;2022-07-30T12:36:48;28.50;71.40
6429;DHT22;3247;48.946;10.220;2022-07-30T12:39:17;28.50;71.60
6429;DHT22;3247;48.946;10.220;2022-07-30T12:41:48;28.60;71.00
6429;DHT22;3247;48.946;10.220;2022-07-30T12:44:35;28.40;70.00
6429;DHT22;3247;48.946;10.220;2022-07-30T12:46:59;28.50;70.00
6429;DHT22;3247;48.946;10.220;2022-07-30T12:49:29;28.10;70.80
6429;DHT22;3247;48.946;10.220;2022-07-30T12:51:55;28.00;71.20
6429;DHT22;3247;48.946;10.220;2022-07-30T12:54:20;28.20;70.70
6429;DHT22;3247;48.946;10.220;2022-07-30T12:56:59;28.10;70.50
6429;DHT22;3247;48.946;10.220;2022-07-30T12:59:25;28.20;70.30
6429;DHT22;3247;48.946;10.220;2022-07-30T13:01:51;28.30;69.60
6429;DHT22;3247;48.946;10.220;2022-07-30T13:04:18;28.50;69.60
6429;DHT22;3247;48.946;10.220;2022-07-30T13:06:43;28.70;70.10
6429;DHT22;3247;48.946;10.220;2022-07-30T13:09:18;28.80;69.40
6429;DHT22;3247;48.946;10.220;2022-07-30T13:11:44;29.00;68.50
6429;DHT22;3247;48.946;10.220;2022-07-30T13:14:10;29.10;68.60
6429;DHT22;3247;48.946;10.220;2022-07-30T13:16:37;29.20;68.60
6429;DHT22;3247;48.946;10.220;2022-07-30T13:19:03;29.40;68.10
6429;DHT22;3247;48.946;10.220;2022-07-30T13:21:29;29.30;66.70
6429;DHT22;3247;48.946;10.220;2022-07-30T13:23:54;28.70;67.40
6429;DHT22;3247;48.946;10.220;2022-07-30T13:26:20;28.30;68.70
6429;DHT22;3247;48.946;10.220;2022-07-30T13:28:45;28.50;69.70
6429;DHT22;3247;48.946;10.220;2022-07-30T13:31:11;28.50;69.00
6429;DHT22;3247;48.946;10.220;2022-07-30T13:33:37;28.10;69.10
6429;DHT22;3247;48.946;10.220;2022-07-30T13:36:03;27.60;71.00
6429;DHT22;3247;48.946;10.220;2022-07-30T13:38:28;27.60;71.70
6429;DHT22;3247;48.946;10.220;2022-07-30T13:40:54;27.80;71.10
6429;DHT22;3247;48.946;10.220;2022-07-30T13:43:20;27.90;70.80
6429;DHT22;3247;48.946;10.220;2022-07-30T13:45:46;27.90;70.90
6429;DHT22;3247;48.946;10.220;2022-07-30T13:48:11;27.90;71.20
6429;DHT22;3247;48.946;10.220;2022-07-30T13:50:37;28.10;71.60
6429;DHT22;3247;48.946;10.220;2022-07-30T13:53:03;28.00;70.40
6429;DHT22;3247;48.946;10.220;2022-07-30T13:55:28;27.90;70.10
6429;DHT22;3247;48.946;10.220;2022-07-30T13:57:54;28.00;69.80
6429;DHT22;3247;48.946;10.220;2022-07-30T14:00:20;28.10;71.00
6429;DHT22;3247;48.946;10.220;2022-07-30T14:02:47;28.20;71.60
6429;DHT22;3247;48.946;10.220;2022-07-30T14:05:12;28.50;71.00
6429;DHT22;3247;48.946;10.220;2022-07-30T14:07:38;28.60;70.80
6429;DHT22;3247;48.946;10.220;2022-07-30T14:10:05;28.80;69.30
6429;DHT22;3247;48.946;10.220;2022-07-30T14:12:31;28.70;69.30
6429;DHT22;3247;48.946;10.220;2022-07-30T14:14:57;28.60;67.70
6429;DHT22;3247;48.946;10.220;2022-07-30T14:17:22;28.60;68.80
6429;DHT22;3247;48.946;10.220;2022-07-30T14:19:48;28.60;69.40
6429;DHT22;3247;48.946;10.220;2022-07-30T14:22:15;28.10;69.90
6429;DHT22;3247;48.946;10.220;2022-07-30T14:24:40;28.20;69.50
6429;DHT22;3247;48.946;10.220;2022-07-30T14:27:05;28.30;71.10
6429;DHT22;3247;48.946;10.220;2022-07-30T14:29:31;28.50;70.40
6429;DHT22;3247;48.946;10.220;2022-07-30T14:31:56;28.60;70.60
6429;DHT22;3247;48.946;10.220;2022-07-30T14:34:22;28.80;69.90
6429;DHT22;3247;48.946;10.220;2022-07-30T14:36:47;28.70;68.90
6429;DHT22;3247;48.946;10.220;2022-07-30T14:39:13;28.70;69.40
6429;DHT22;3247;48.946;10.220;2022-07-30T14:41:39;28.50;70.20
6429;DHT22;3247;48.946;10.220;2022-07-30T14:44:04;28.50;70.00
6429;DHT22;3247;48.946;10.220;2022-07-30T14:46:30;28.70;70.60
6429;DHT22;3247;48.946;10.220;2022-07-30T14:48:56;28.70;70.00
6429;DHT22;3247;48.946;10.220;2022-07-30T14:51:21;28.80;70.50
6429;DHT22;3247;48.946;10.220;2022-07-30T14:53:47;28.70;69.30
6429;DHT22;3247;48.946;10.220;2022-07-30T14:56:14;28.20;70.00
6429;DHT22;3247;48.946;10.220;2022-07-30T14:58:40;28.10;70.60
6429;DHT22;3247;48.946;10.220;2022-07-30T15:01:05;27.80;71.50
6429;DHT22;3247;48.946;10.220;2022-07-30T15:03:33;28.00;71.10
6429;DHT22;3247;48.946;10.220;2022-07-30T15:05:58;28.00;71.00
6429;DHT22;3247;48.946;10.220;2022-07-30T15:08:24;28.10;70.90
6429;DHT22;3247;48.946;10.220;2022-07-30T15:10:49;28.10;70.90
6429;DHT22;3247;48.946;10.220;2022-07-30T15:13:15;28.00;71.60
6429;DHT22;3247;48.946;10.220;2022-07-30T15:15:40;28.00;70.90
6429;DHT22;3247;48.946;10.220;2022-07-30T15:18:06;28.10;72.00
6429;DHT22;3247;48.946;10.220;2022-07-30T15:20:32;28.00;71.70
6429;DHT22;3247;48.946;10.220;2022-07-30T15:22:57;28.10;71.60
6429;DHT22;3247;48.946;10.220;2022-07-30T15:25:23;28.00;71.70
6429;DHT22;3247;48.946;10.220;2022-07-30T15:27:48;27.90;71.60
6429;DHT22;3247;48.946;10.220;2022-07-30T15:30:16;27.50;71.50
6429;DHT22;3247;48.946;10.220;2022-07-30T15:32:42;27.30;72.10
6429;DHT22;3247;48.946;10.220;2022-07-30T15:35:07;27.20;72.40
6429;DHT22;3247;48.946;10.220;2022-07-30T15:37:33;27.10;72.70
6429;DHT22;3247;48.946;10.220;2022-07-30T15:39:58;26.90;73.40
6429;DHT22;3247;48.946;10.220;2022-07-30T15:42:24;26.70;73.20
6429;DHT22;3247;48.946;10.220;2022-07-30T15:44:51;26.60;73.30
6429;DHT22;3247;48.946;10.220;2022-07-30T15:47:17;26.70;74.40
6429;DHT22;3247;48.946;10.220;2022-07-30T15:49:43;26.80;74.20
6429;DHT22;3247;48.946;10.220;2022-07-30T15:52:08;26.80;74.20
6429;DHT22;3247;48.946;10.220;2022-07-30T15:54:34;26.60;75.00
6429;DHT22;3247;48.946;10.220;2022-07-30T15:56:59;26.60;75.20
6429;DHT22;3247;48.946;10.220;2022-07-30T15:59:25;26.70;74.80
6429;DHT22;3247;48.946;10.220;2022-07-30T16:01:50;26.70;74.50
6429;DHT22;3247;48.946;10.220;2022-07-30T16:04:16;26.70;74.70
6429;DHT22;3247;48.946;10.220;2022-07-30T16:06:41;27.00;75.10
6429;DHT22;3247;48.946;10.220;2022-07-30T16:09:07;26.80;74.50
6429;DHT22;3247;48.946;10.220;2022-07-30T16:11:32;26.80;74.30
6429;DHT22;3247;48.946;10.220;2022-07-30T16:13:58;26.60;74.50
6429;DHT22;3247;48.946;10.220;2022-07-30T16:16:24;26.40;74.40
6429;DHT22;3247;48.946;10.220;2022-07-30T16:18:50;26.50;75.70
6429;DHT22;3247;48.946;10.220;2022-07-30T16:21:15;26.60;75.50